createdAt,value
2018-05-21T00:00:22.400Z,77.99
2018-05-21T00:01:32.409Z,77.61
2018-05-21T00:02:42.502Z,78.18
2018-05-21T00:03:52.512Z,78.09
2018-05-21T00:05:02.365Z,77.99
2018-05-21T00:06:11.849Z,77.8
2018-05-21T00:07:21.940Z,78.09
2018-05-21T00:08:31.425Z,78.56
2018-05-21T00:09:41.459Z,78.85
2018-05-21T00:10:51.465Z,78.09
2018-05-21T00:12:01.476Z,78.66
2018-05-21T00:13:11.216Z,77.99
2018-05-21T00:14:21.231Z,78.66
2018-05-21T00:15:30.974Z,78.56
2018-05-21T00:16:40.833Z,78.37
2018-05-21T00:17:50.704Z,78.66
2018-05-21T00:19:00.718Z,78.85
2018-05-21T00:20:10.460Z,78.66
2018-05-21T00:21:20.208Z,78.56
2018-05-21T00:22:29.415Z,78.85
2018-05-21T00:23:39.162Z,78.47
2018-05-21T00:24:49.180Z,78.56
2018-05-21T00:25:58.926Z,78.56
2018-05-21T00:27:08.403Z,78.66
2018-05-21T00:28:18.147Z,78.56
2018-05-21T00:29:27.898Z,78.56
2018-05-21T00:30:37.652Z,78.66
2018-05-21T00:31:47.393Z,78.47
2018-05-21T00:32:57.407Z,78.75
2018-05-21T00:34:07.427Z,78.75
2018-05-21T00:35:17.442Z,78.47
2018-05-21T00:36:27.452Z,78.37
2018-05-21T00:37:37.467Z,78.18
2018-05-21T00:38:47.478Z,78.66
2018-05-21T00:39:56.952Z,78.56
2018-05-21T00:41:06.217Z,78.18
2018-05-21T00:42:16.223Z,78.56
2018-05-21T00:43:26.240Z,78.37
2018-05-21T00:44:35.987Z,77.99
2018-05-21T00:45:46.005Z,77.8
2018-05-21T00:46:56.020Z,78.09
2018-05-21T00:48:06.028Z,77.89
2018-05-21T00:49:16.043Z,77.99
2018-05-21T00:50:25.958Z,78.14
2018-05-21T00:51:35.651Z,77.95
2018-05-21T00:52:45.135Z,78.62
2018-05-21T00:53:55.155Z,78.72
2018-05-21T00:55:04.898Z,78.62
2018-05-21T00:56:14.647Z,78.52
2018-05-21T00:57:24.436Z,78.52
2018-05-21T00:58:33.691Z,78.33
2018-05-21T00:59:43.430Z,78.72
2018-05-21T01:00:53.441Z,79
2018-05-21T01:02:03.453Z,78.62
2018-05-21T01:03:12.929Z,78.43
2018-05-21T01:04:22.776Z,78.33
2018-05-21T01:05:32.544Z,78.62
2018-05-21T01:06:42.646Z,78.43
2018-05-21T01:07:52.397Z,79.19
2018-05-21T01:09:02.146Z,78.81
2018-05-21T01:10:11.090Z,78.91
2018-05-21T01:11:21.104Z,79
2018-05-21T01:12:30.850Z,79.19
2018-05-21T01:13:40.608Z,79.1
2018-05-21T01:14:50.356Z,78.52
2018-05-21T01:16:00.378Z,78.33
2018-05-21T01:17:10.133Z,78.81
2018-05-21T01:18:19.896Z,78.62
2018-05-21T01:19:29.632Z,79
2018-05-21T01:20:39.387Z,79
2018-05-21T01:21:49.392Z,79.48
2018-05-21T01:22:59.401Z,79.1
2018-05-21T01:24:09.146Z,79.1
2018-05-21T01:25:19.175Z,79.19
2018-05-21T01:26:29.189Z,79.1
2018-05-21T01:27:39.035Z,78.91
2018-05-21T01:28:49.054Z,79.28
2018-05-21T01:29:58.796Z,79.1
2018-05-21T01:31:08.549Z,78.62
2018-05-21T01:32:18.556Z,79.1
2018-05-21T01:33:28.566Z,78.91
2018-05-21T01:34:38.309Z,79.19
2018-05-21T01:35:48.054Z,79
2018-05-21T01:36:57.289Z,78.91
2018-05-21T01:38:07.031Z,79.1
2018-05-21T01:39:16.772Z,78.81
2018-05-21T01:40:26.520Z,79.19
2018-05-21T01:41:35.728Z,78.23
2018-05-21T01:42:45.740Z,78.62
2018-05-21T01:43:55.756Z,78.43
2018-05-21T01:45:05.499Z,78.14
2018-05-21T01:46:14.974Z,78.67
2018-05-21T01:47:24.985Z,79.35
2018-05-21T01:48:34.728Z,78.67
2018-05-21T01:49:44.485Z,79.35
2018-05-21T01:50:54.495Z,79.35
2018-05-21T01:52:04.537Z,80.01
2018-05-21T01:53:14.017Z,79.38
2018-05-21T01:54:23.764Z,79.53
2018-05-21T01:55:33.774Z,79.15
2018-05-21T01:56:43.790Z,79.91
2018-05-21T01:57:53.807Z,80.96
2018-05-21T01:59:03.550Z,80.96
2018-05-21T02:00:13.025Z,81.06
2018-05-21T02:01:23.054Z,81.06
2018-05-21T02:02:32.588Z,80.68
2018-05-21T02:03:42.332Z,80.58
2018-05-21T02:04:52.353Z,80.2
2018-05-21T02:06:02.369Z,80.39
2018-05-21T02:07:12.110Z,80.49
2018-05-21T02:08:22.216Z,79.72
2018-05-21T02:09:32.014Z,79.53
2018-05-21T02:10:41.490Z,79.35
2018-05-21T02:11:51.233Z,79.15
2018-05-21T02:13:01.246Z,79.15
2018-05-21T02:14:10.722Z,78.86
2018-05-21T02:15:20.736Z,78.49
2018-05-21T02:16:30.746Z,78.67
2018-05-21T02:17:40.224Z,78.2
2018-05-21T02:18:49.970Z,78.1
2018-05-21T02:20:00.157Z,78.1
2018-05-21T02:21:10.070Z,78.2
2018-05-21T02:22:19.816Z,78.1
2018-05-21T02:23:29.571Z,77.91
2018-05-21T02:24:39.044Z,77.72
2018-05-21T02:25:49.055Z,76.86
2018-05-21T02:26:58.821Z,77.25
2018-05-21T02:28:09.343Z,77.06
2018-05-21T02:29:18.821Z,77.72
2018-05-21T02:30:28.309Z,77.53
2018-05-21T02:31:38.344Z,77.91
2018-05-21T02:32:48.094Z,77.62
2018-05-21T02:33:58.106Z,77.25
2018-05-21T02:35:07.855Z,76.96
2018-05-21T02:36:17.874Z,76.86
2018-05-21T02:37:27.896Z,76.96
2018-05-21T02:38:37.947Z,76.77
2018-05-21T02:39:47.698Z,77.06
2018-05-21T02:40:57.450Z,77.06
2018-05-21T02:42:07.211Z,77.25
2018-05-21T02:43:17.231Z,76.96
2018-05-21T02:44:27.241Z,76.96
2018-05-21T02:45:37.254Z,77.25
2018-05-21T02:46:46.994Z,76.1
2018-05-21T02:47:56.469Z,75.91
2018-05-21T02:49:06.491Z,76.1
2018-05-21T02:50:15.714Z,76.2
2018-05-21T02:51:25.191Z,76.48
2018-05-21T02:52:35.200Z,76.29
2018-05-21T02:53:45.217Z,76.01
2018-05-21T02:54:54.959Z,76.1
2018-05-21T02:56:04.972Z,76.2
2018-05-21T02:57:14.989Z,76.29
2018-05-21T02:58:24.735Z,75.53
2018-05-21T02:59:34.473Z,75.72
2018-05-21T03:03:25.424Z,75.24
2018-05-21T03:04:35.166Z,75.81
2018-05-21T03:05:44.914Z,75.81
2018-05-21T03:06:54.663Z,75.91
2018-05-21T03:08:04.407Z,75.34
2018-05-21T03:09:14.418Z,76.01
2018-05-21T03:10:24.164Z,75.34
2018-05-21T03:11:34.177Z,76.1
2018-05-21T03:12:43.922Z,74.96
2018-05-21T03:13:53.666Z,75.24
2018-05-21T03:15:03.682Z,75.15
2018-05-21T03:16:13.432Z,74.77
2018-05-21T03:17:23.171Z,74.86
2018-05-21T03:18:33.193Z,74.1
2018-05-21T03:19:42.932Z,74.19
2018-05-21T03:20:52.677Z,73.52
2018-05-21T03:22:02.687Z,73.24
2018-05-21T03:23:12.708Z,72.67
2018-05-21T03:24:22.471Z,72.09
2018-05-21T03:25:32.223Z,72.57
2018-05-21T03:26:41.974Z,72.61
2018-05-21T03:27:51.986Z,71.72
2018-05-21T03:29:01.997Z,72.61
2018-05-21T03:30:12.008Z,71.66
2018-05-21T03:31:22.024Z,71.37
2018-05-21T03:32:31.765Z,71.37
2018-05-21T03:33:41.777Z,71.37
2018-05-21T03:34:51.611Z,70.61
2018-05-21T03:36:01.097Z,70.7
2018-05-21T03:37:10.578Z,70.79
2018-05-21T03:38:20.644Z,70.51
2018-05-21T03:39:30.386Z,70.7
2018-05-21T03:40:40.125Z,70.79
2018-05-21T03:41:50.138Z,70.98
2018-05-21T03:43:00.146Z,70.79
2018-05-21T03:44:09.886Z,70.98
2018-05-21T03:45:19.716Z,71.46
2018-05-21T03:46:29.729Z,71.37
2018-05-21T03:47:39.749Z,71.66
2018-05-21T03:48:49.762Z,70.98
2018-05-21T03:49:59.769Z,70.7
2018-05-21T03:51:09.517Z,71.18
2018-05-21T03:52:19.003Z,71.37
2018-05-21T03:53:29.010Z,71.27
2018-05-21T03:54:38.758Z,70.98
2018-05-21T03:55:48.503Z,71.37
2018-05-21T03:56:58.262Z,71.27
2018-05-21T03:58:08.016Z,71.27
2018-05-21T03:59:17.757Z,70.98
2018-05-21T04:00:27.773Z,70.51
2018-05-21T04:01:37.519Z,70.79
2018-05-21T04:02:47.530Z,70.89
2018-05-21T04:03:57.537Z,70.98
2018-05-21T04:05:06.755Z,71.08
2018-05-21T04:06:16.235Z,71.66
2018-05-21T04:07:25.722Z,70.89
2018-05-21T04:08:35.742Z,71.08
2018-05-21T04:09:45.758Z,70.51
2018-05-21T04:10:55.502Z,70.13
2018-05-21T04:12:04.975Z,70.54
2018-05-21T04:13:14.983Z,70.36
2018-05-21T04:14:24.727Z,70.36
2018-05-21T04:15:34.741Z,70.83
2018-05-21T04:16:44.485Z,70.26
2018-05-21T04:17:54.493Z,70.64
2018-05-21T04:19:04.366Z,69.97
2018-05-21T04:20:13.842Z,69.87
2018-05-21T04:21:23.868Z,69.49
2018-05-21T04:22:33.893Z,69.31
2018-05-21T04:23:43.908Z,68.16
2018-05-21T04:24:54.024Z,68.73
2018-05-21T04:26:03.775Z,69.49
2018-05-21T04:27:13.784Z,68.44
2018-05-21T04:28:23.523Z,68.82
2018-05-21T04:29:33.317Z,68.1
2018-05-21T04:30:43.407Z,68.1
2018-05-21T04:31:53.417Z,67.71
2018-05-21T04:33:03.162Z,67.43
2018-05-21T04:34:13.248Z,67.52
2018-05-21T04:35:22.469Z,68.1
2018-05-21T04:36:32.572Z,68
2018-05-21T04:37:42.691Z,68.29
2018-05-21T04:38:51.902Z,67.43
2018-05-21T04:40:01.914Z,67.71
2018-05-21T04:41:11.659Z,66.56
2018-05-21T04:42:21.675Z,68.1
2018-05-21T04:43:31.415Z,67.55
2018-05-21T04:44:41.161Z,68.19
2018-05-21T04:45:50.902Z,67.27
2018-05-21T04:47:00.649Z,66.28
2018-05-21T04:48:10.403Z,66.66
2018-05-21T04:49:20.410Z,65.61
2018-05-21T04:50:30.153Z,65.23
2018-05-21T04:51:39.359Z,65.45
2018-05-21T04:52:49.414Z,65.93
2018-05-21T04:53:58.888Z,65.17
2018-05-21T04:55:08.380Z,65.45
2018-05-21T04:56:18.388Z,65.26
2018-05-21T04:57:28.225Z,65.17
2018-05-21T04:58:38.247Z,65.36
2018-05-21T04:59:47.723Z,65.17
2018-05-21T05:00:57.742Z,64.5
2018-05-21T05:02:07.493Z,64.98
2018-05-21T05:03:16.701Z,65.2
2018-05-21T05:04:26.443Z,65.2
2018-05-21T05:05:35.977Z,64.82
2018-05-21T05:06:45.994Z,64.72
2018-05-21T05:07:55.805Z,65.01
2018-05-21T05:09:05.552Z,63.86
2018-05-21T05:10:15.584Z,62.71
2018-05-21T05:11:25.054Z,64.91
2018-05-21T05:12:35.067Z,64.05
2018-05-21T05:13:44.861Z,62.81
2018-05-21T05:14:54.603Z,63.1
2018-05-21T05:16:03.812Z,63.48
2018-05-21T05:17:13.831Z,63.96
2018-05-21T05:18:23.578Z,63.86
2018-05-21T05:19:33.324Z,64.43
2018-05-21T05:20:43.077Z,63.19
2018-05-21T05:21:52.820Z,63.76
2018-05-21T05:23:02.837Z,63.29
2018-05-21T05:24:12.313Z,62.9
2018-05-21T05:25:22.329Z,63.6
2018-05-21T05:26:32.082Z,62.94
2018-05-21T05:27:42.283Z,63.03
2018-05-21T05:28:52.304Z,62.84
2018-05-21T05:30:02.321Z,63.32
2018-05-21T05:31:12.068Z,62.74
2018-05-21T05:32:22.091Z,62.55
2018-05-21T05:33:32.104Z,62.84
2018-05-21T05:34:42.118Z,64.37
2018-05-21T05:35:51.598Z,62.08
2018-05-21T05:37:01.833Z,63.99
2018-05-21T05:38:11.854Z,62.55
2018-05-21T05:39:21.872Z,62.4
2018-05-21T05:40:31.941Z,61.82
2018-05-21T05:41:41.949Z,59.81
2018-05-21T05:42:51.958Z,60.58
2018-05-21T05:44:01.967Z,60.86
2018-05-21T05:45:11.713Z,60.96
2018-05-21T05:46:21.463Z,60.29
2018-05-21T05:47:31.218Z,59.14
2018-05-21T05:48:40.701Z,59.33
2018-05-21T05:49:50.891Z,59.52
2018-05-21T05:51:00.924Z,59.23
2018-05-21T05:52:10.669Z,59.23
2018-05-21T05:53:20.411Z,59.45
2018-05-21T05:54:30.425Z,59.45
2018-05-21T05:55:40.449Z,58.28
2018-05-21T05:56:50.194Z,58.79
2018-05-21T05:57:59.941Z,58.02
2018-05-21T05:59:09.963Z,58.02
2018-05-21T06:00:19.711Z,58.79
2018-05-21T06:01:29.728Z,58.02
2018-05-21T06:02:39.744Z,57.92
2018-05-21T06:03:49.494Z,57.73
2018-05-21T06:04:59.241Z,58.59
2018-05-21T06:06:08.722Z,58.5
2018-05-21T06:07:18.475Z,57.54
2018-05-21T06:08:28.497Z,57.64
2018-05-21T06:09:38.243Z,57.35
2018-05-21T06:10:47.989Z,56.49
2018-05-21T06:11:58.007Z,55.94
2018-05-21T06:13:08.049Z,55.75
2018-05-21T06:14:17.539Z,56.42
2018-05-21T06:15:27.027Z,56.81
2018-05-21T06:16:37.044Z,56.9
2018-05-21T06:17:47.061Z,54.79
2018-05-21T06:18:57.179Z,55.65
2018-05-21T06:20:07.200Z,54.99
2018-05-21T06:21:16.944Z,54.32
2018-05-21T06:22:26.153Z,54.03
2018-05-21T06:23:35.633Z,53.93
2018-05-21T06:24:45.382Z,53.83
2018-05-21T06:25:55.261Z,54.03
2018-05-21T06:27:04.879Z,52.69
2018-05-21T06:28:14.355Z,54.12
2018-05-21T06:29:24.368Z,52.69
2018-05-21T06:30:33.848Z,54.22
2018-05-21T06:31:43.592Z,52.81
2018-05-21T06:32:53.343Z,53.64
2018-05-21T06:34:03.227Z,53.77
2018-05-21T06:35:12.957Z,54.34
2018-05-21T06:36:22.979Z,53.09
2018-05-21T06:37:32.722Z,53.48
2018-05-21T06:38:42.733Z,54.34
2018-05-21T06:39:52.493Z,51.85
2018-05-21T06:41:02.037Z,51.18
2018-05-21T06:42:12.171Z,53.67
2018-05-21T06:43:22.184Z,51.08
2018-05-21T06:44:31.938Z,51.28
2018-05-21T06:45:41.683Z,51.85
2018-05-21T06:46:51.167Z,52.52
2018-05-21T06:48:00.916Z,52.14
2018-05-21T06:49:10.133Z,53.67
2018-05-21T06:50:20.157Z,51.75
2018-05-21T06:51:29.636Z,53.09
2018-05-21T06:52:39.390Z,51.68
2018-05-21T06:53:49.138Z,50.92
2018-05-21T06:54:59.155Z,51.87
2018-05-21T06:56:08.705Z,52.42
2018-05-21T06:57:18.187Z,51.49
2018-05-21T06:58:27.664Z,50.53
2018-05-21T06:59:37.413Z,51.3
2018-05-21T07:00:47.564Z,51.3
2018-05-21T07:01:57.596Z,52.36
2018-05-21T07:03:07.347Z,51.87
2018-05-21T07:04:17.361Z,51.97
2018-05-21T07:05:27.376Z,50.05
2018-05-21T07:06:37.392Z,50.73
2018-05-21T07:07:47.407Z,50.24
2018-05-21T07:08:57.546Z,51.2
2018-05-21T07:10:07.294Z,51.01
2018-05-21T07:11:17.047Z,49.19
2018-05-21T07:12:27.071Z,50.05
2018-05-21T07:13:37.090Z,50.82
2018-05-21T07:14:47.111Z,51.3
2018-05-21T07:15:57.123Z,50.65
2018-05-21T07:17:06.877Z,50.56
2018-05-21T07:18:17.062Z,49.79
2018-05-21T07:19:26.818Z,49.02
2018-05-21T07:20:36.030Z,49.6
2018-05-21T07:21:45.771Z,48.54
2018-05-21T07:22:55.522Z,48.83
2018-05-21T07:24:05.538Z,48.35
2018-05-21T07:25:15.547Z,48.93
2018-05-21T07:26:25.300Z,50.27
2018-05-21T07:27:35.321Z,50.37
2018-05-21T07:28:45.074Z,47.68
2018-05-21T07:29:54.828Z,49.12
2018-05-21T07:31:04.306Z,49.5
2018-05-21T07:32:14.327Z,50.37
2018-05-21T07:33:24.344Z,47.77
2018-05-21T07:34:34.360Z,47.3
2018-05-21T07:35:44.108Z,48.83
2018-05-21T07:36:53.687Z,48.25
2018-05-21T07:38:03.171Z,49.15
2018-05-21T07:39:12.936Z,48.09
2018-05-21T07:40:22.960Z,48.28
2018-05-21T07:41:32.704Z,48.95
2018-05-21T07:42:42.721Z,49.52
2018-05-21T07:43:52.467Z,50.87
2018-05-21T07:45:02.477Z,48.47
2018-05-21T07:46:12.240Z,48.66
2018-05-21T07:47:22.342Z,49.15
2018-05-21T07:48:32.363Z,46.94
2018-05-21T07:49:42.108Z,49.05
2018-05-21T07:50:52.128Z,46.74
2018-05-21T07:52:01.876Z,47.32
2018-05-21T07:53:11.892Z,48.76
2018-05-21T07:54:21.642Z,47.51
2018-05-21T07:55:31.669Z,46.86
2018-05-21T07:56:41.148Z,48.18
2018-05-21T07:57:51.161Z,48.09
2018-05-21T07:59:01.182Z,50.03
2018-05-21T08:00:10.931Z,47.53
2018-05-21T08:01:20.412Z,46.86
2018-05-21T08:02:30.425Z,45.81
2018-05-21T08:03:40.176Z,47.34
2018-05-21T08:04:50.198Z,45.52
2018-05-21T08:05:59.937Z,46.86
2018-05-21T08:07:09.419Z,47.34
2018-05-21T08:08:19.463Z,48.88
2018-05-21T08:09:28.656Z,46.48
2018-05-21T08:10:38.684Z,48.21
2018-05-21T08:11:48.708Z,46.67
2018-05-21T08:12:58.727Z,46.48
2018-05-21T08:14:08.753Z,45.61
2018-05-21T08:15:18.231Z,45.04
2018-05-21T08:16:27.979Z,45.23
2018-05-21T08:17:37.730Z,45.32
2018-05-21T08:18:47.480Z,46.77
2018-05-21T08:19:57.497Z,46.19
2018-05-21T08:21:07.256Z,44.08
2018-05-21T08:22:17.445Z,44.56
2018-05-21T08:23:27.626Z,44.08
2018-05-21T08:24:37.382Z,45.61
2018-05-21T08:25:47.399Z,45.64
2018-05-21T08:26:57.154Z,44.48
2018-05-21T08:28:06.941Z,43.7
2018-05-21T08:29:16.686Z,43.71
2018-05-21T08:30:26.170Z,45.92
2018-05-21T08:31:35.925Z,44.96
2018-05-21T08:32:45.944Z,44.96
2018-05-21T08:33:55.695Z,43.23
2018-05-21T08:35:05.727Z,45.35
2018-05-21T08:36:15.547Z,44.48
2018-05-21T08:37:25.040Z,43.33
2018-05-21T08:38:35.050Z,43.81
2018-05-21T08:39:45.064Z,43.52
2018-05-21T08:40:55.080Z,44.96
2018-05-21T08:42:05.102Z,44.2
2018-05-21T08:43:14.583Z,44.96
2018-05-21T08:44:24.331Z,46.5
2018-05-21T08:45:34.346Z,43.84
2018-05-21T08:46:44.088Z,43.33
2018-05-21T08:47:53.571Z,43.64
2018-05-21T08:49:03.596Z,45.92
2018-05-21T08:50:13.414Z,43.64
2018-05-21T08:51:23.425Z,44.41
2018-05-21T08:52:32.909Z,43.84
2018-05-21T08:53:42.922Z,42.58
2018-05-21T08:54:52.670Z,42.2
2018-05-21T08:56:02.430Z,43.07
2018-05-21T08:57:12.178Z,43.07
2018-05-21T08:58:21.929Z,42.1
2018-05-21T08:59:31.684Z,43.16
2018-05-21T09:00:41.705Z,43.35
2018-05-21T09:01:51.186Z,42.58
2018-05-21T09:03:00.665Z,42.49
2018-05-21T09:04:10.477Z,43.54
2018-05-21T09:05:20.501Z,43.16
2018-05-21T09:06:30.524Z,42.32
2018-05-21T09:07:40.553Z,43.45
2018-05-21T09:08:50.587Z,44.89
2018-05-21T09:10:00.710Z,43.57
2018-05-21T09:11:11.147Z,42.7
2018-05-21T09:12:21.115Z,41.83
2018-05-21T09:13:31.026Z,42.3
2018-05-21T09:14:40.852Z,42.58
2018-05-21T09:15:50.867Z,41.64
2018-05-21T09:17:00.882Z,42.68
2018-05-21T09:18:10.441Z,42.03
2018-05-21T09:19:20.187Z,42.99
2018-05-21T09:20:30.211Z,41.83
2018-05-21T09:21:39.688Z,41.74
2018-05-21T09:22:49.441Z,41.74
2018-05-21T09:23:59.191Z,41.64
2018-05-21T09:25:08.944Z,42.5
2018-05-21T09:26:18.956Z,42.8
2018-05-21T09:27:28.716Z,42.03
2018-05-21T09:28:38.753Z,42.7
2018-05-21T09:29:48.499Z,44.62
2018-05-21T09:30:58.521Z,42.89
2018-05-21T09:32:08.281Z,42.82
2018-05-21T09:33:18.446Z,42.05
2018-05-21T09:34:28.209Z,41.86
2018-05-21T09:35:37.967Z,41.86
2018-05-21T09:36:47.719Z,43.3
2018-05-21T09:37:57.739Z,41.56
2018-05-21T09:39:07.224Z,41.76
2018-05-21T09:40:17.242Z,41.18
2018-05-21T09:41:26.719Z,42.53
2018-05-21T09:42:36.728Z,41.76
2018-05-21T09:43:46.220Z,41.38
2018-05-21T09:44:56.241Z,42.72
2018-05-21T09:46:05.719Z,41.28
2018-05-21T09:47:15.754Z,42.05
2018-05-21T09:48:25.510Z,41.86
2018-05-21T09:49:35.530Z,42.14
2018-05-21T09:50:45.272Z,43.01
2018-05-21T09:51:54.769Z,42.72
2018-05-21T09:53:04.522Z,41.86
2018-05-21T09:54:14.273Z,41.56
2018-05-21T09:55:24.291Z,40.8
2018-05-21T09:56:34.051Z,40.89
2018-05-21T09:57:44.076Z,42.53
2018-05-21T09:58:53.829Z,42.53
2018-05-21T10:00:03.850Z,41.18
2018-05-21T10:01:13.893Z,41.88
2018-05-21T10:02:23.373Z,43.23
2018-05-21T10:03:33.391Z,43.41
2018-05-21T10:04:43.409Z,41.78
2018-05-21T10:05:53.429Z,41.97
2018-05-21T10:07:03.447Z,40.43
2018-05-21T10:08:13.198Z,42.74
2018-05-21T10:09:22.410Z,41.2
2018-05-21T10:10:32.154Z,40.16
2018-05-21T10:11:41.720Z,40.53
2018-05-21T10:12:51.476Z,40.63
2018-05-21T10:14:01.229Z,41.88
2018-05-21T10:15:10.712Z,39.66
2018-05-21T10:16:20.745Z,41.68
2018-05-21T10:17:30.767Z,42.36
2018-05-21T10:18:40.781Z,39.87
2018-05-21T10:19:50.609Z,40.94
2018-05-21T10:21:00.356Z,41.22
2018-05-21T10:22:10.107Z,41.71
2018-05-21T10:23:19.861Z,41.71
2018-05-21T10:24:29.076Z,40.64
2018-05-21T10:25:38.825Z,40.64
2018-05-21T10:26:48.577Z,39.97
2018-05-21T10:27:58.595Z,39.49
2018-05-21T10:29:08.618Z,39.39
2018-05-21T10:30:18.646Z,38.62
2018-05-21T10:31:28.658Z,41.32
2018-05-21T10:32:38.687Z,41.8
2018-05-21T10:33:48.446Z,40.66
2018-05-21T10:34:58.203Z,39.31
2018-05-21T10:36:07.971Z,40.64
2018-05-21T10:37:18.036Z,40.66
2018-05-21T10:38:28.407Z,40.09
2018-05-21T10:39:37.889Z,39.7
2018-05-21T10:40:47.639Z,38.64
2018-05-21T10:41:57.654Z,40.66
2018-05-21T10:43:07.416Z,38.26
2018-05-21T10:44:17.441Z,38.54
2018-05-21T10:45:27.188Z,38.74
2018-05-21T10:46:36.970Z,39.59
2018-05-21T10:47:46.457Z,39.12
2018-05-21T10:48:55.949Z,39.51
2018-05-21T10:50:05.699Z,38.93
2018-05-21T10:51:15.777Z,39.7
2018-05-21T10:52:26.026Z,40.66
2018-05-21T10:53:36.048Z,39.89
2018-05-21T10:54:45.799Z,39.41
2018-05-21T10:55:55.829Z,38.64
2018-05-21T10:57:05.326Z,39.12
2018-05-21T10:58:15.084Z,38.83
2018-05-21T10:59:24.864Z,38.45
2018-05-21T11:00:34.753Z,39.12
2018-05-21T11:01:44.834Z,39.03
2018-05-21T11:02:55.253Z,39.53
2018-05-21T11:04:04.744Z,40.69
2018-05-21T11:05:14.505Z,39.91
2018-05-21T11:06:24.343Z,41.17
2018-05-21T11:07:34.366Z,39.53
2018-05-21T11:08:44.397Z,38.76
2018-05-21T11:09:54.155Z,38.46
2018-05-21T11:11:03.368Z,38.28
2018-05-21T11:12:12.993Z,40.78
2018-05-21T11:13:22.721Z,39.64
2018-05-21T11:14:32.736Z,38.49
2018-05-21T11:15:42.762Z,36.75
2018-05-21T11:16:52.783Z,38.1
2018-05-21T11:18:02.752Z,38.2
2018-05-21T11:19:12.339Z,37.5
2018-05-21T11:20:22.367Z,37.5
2018-05-21T11:21:32.130Z,38.56
2018-05-21T11:22:41.878Z,38.66
2018-05-21T11:23:51.679Z,39.53
2018-05-21T11:25:01.438Z,38.49
2018-05-21T11:26:11.195Z,38.68
2018-05-21T11:27:21.220Z,36.85
2018-05-21T11:28:30.971Z,35.9
2018-05-21T11:29:40.988Z,37.35
2018-05-21T11:30:50.733Z,35.24
2018-05-21T11:31:59.967Z,34.08
2018-05-21T11:33:09.999Z,34.87
2018-05-21T11:34:19.753Z,34.89
2018-05-21T11:35:29.237Z,33.84
2018-05-21T11:36:39.267Z,33.28
2018-05-21T11:37:49.283Z,35.13
2018-05-21T11:38:59.320Z,32.54
2018-05-21T11:40:08.810Z,31.29
2018-05-21T11:41:18.915Z,32.75
2018-05-21T11:42:28.683Z,30.42
2018-05-21T11:43:38.704Z,31.01
2018-05-21T11:44:48.727Z,31.41
2018-05-21T11:45:58.747Z,29.58
2018-05-21T11:47:08.775Z,29.97
2018-05-21T11:48:18.270Z,30.26
2018-05-21T11:49:27.758Z,29.97
2018-05-21T11:50:37.914Z,29.77
2018-05-21T11:51:48.162Z,29.97
2018-05-21T11:52:58.021Z,29.69
2018-05-21T11:54:07.784Z,29.61
2018-05-21T11:55:17.811Z,28.75
2018-05-21T11:56:27.841Z,28.86
2018-05-21T11:57:37.870Z,29.25
2018-05-21T11:58:47.954Z,28.19
2018-05-21T11:59:57.984Z,28.18
2018-05-21T12:01:08.027Z,29.35
2018-05-21T12:02:18.063Z,28.85
2018-05-21T12:03:28.127Z,28.34
2018-05-21T12:04:37.889Z,27.29
2018-05-21T12:05:47.913Z,28.96
2018-05-21T12:06:57.938Z,29.64
2018-05-21T12:08:07.803Z,29.16
2018-05-21T12:09:17.561Z,26.65
2018-05-21T12:10:27.332Z,27.8
2018-05-21T12:11:37.371Z,27.8
2018-05-21T12:12:47.218Z,27.21
2018-05-21T12:13:56.710Z,28.26
2018-05-21T12:15:06.484Z,30.21
2018-05-21T12:16:16.241Z,29.75
2018-05-21T12:17:26.264Z,27.72
2018-05-21T12:18:36.292Z,27.12
2018-05-21T12:19:46.317Z,26.92
2018-05-21T12:20:56.344Z,28.36
2018-05-21T12:22:05.839Z,28.07
2018-05-21T12:23:15.597Z,27.87
2018-05-21T12:24:25.627Z,27.59
2018-05-21T12:25:35.391Z,27.9
2018-05-21T12:26:45.157Z,28
2018-05-21T12:27:55.185Z,28.18
2018-05-21T12:29:04.685Z,27.89
2018-05-21T12:30:14.715Z,28.36
2018-05-21T12:31:24.741Z,28.85
2018-05-21T12:32:34.770Z,28.26
2018-05-21T12:33:44.637Z,28.96
2018-05-21T12:34:54.132Z,29.35
2018-05-21T12:36:03.628Z,29.16
2018-05-21T12:37:13.125Z,29.36
2018-05-21T12:38:23.158Z,28.02
2018-05-21T12:39:32.914Z,27.72
2018-05-21T12:40:42.671Z,27.9
2018-05-21T12:41:52.707Z,27.42
2018-05-21T12:43:02.734Z,28.39
2018-05-21T12:44:11.958Z,26.83
2018-05-21T12:45:21.989Z,27.92
2018-05-21T12:46:31.754Z,26.67
2018-05-21T12:47:41.255Z,26.67
2018-05-21T12:48:50.755Z,26.65
2018-05-21T12:50:00.784Z,26.84
2018-05-21T12:51:10.815Z,26.84
2018-05-21T12:52:20.574Z,27.61
2018-05-21T12:53:30.605Z,28.39
2018-05-21T12:54:40.430Z,28.2
2018-05-21T12:55:50.899Z,27.75
2018-05-21T12:57:00.401Z,26.3
2018-05-21T12:58:10.436Z,26.41
2018-05-21T12:59:20.500Z,26.02
2018-05-21T13:00:30.003Z,25.92
2018-05-21T13:01:40.027Z,26.09
2018-05-21T13:02:50.115Z,26.87
2018-05-21T13:04:00.155Z,27.55
2018-05-21T13:05:10.278Z,26.89
2018-05-21T13:06:19.875Z,25.24
2018-05-21T13:07:29.367Z,24.95
2018-05-21T13:08:39.394Z,24.27
2018-05-21T13:09:49.425Z,24.48
2018-05-21T13:10:58.928Z,24.96
2018-05-21T13:12:08.694Z,25.81
2018-05-21T13:13:18.726Z,25.62
2018-05-21T13:14:28.487Z,25.53
2018-05-21T13:15:38.527Z,25.14
2018-05-21T13:16:48.294Z,25.7
2018-05-21T13:17:58.324Z,24.73
2018-05-21T13:19:08.355Z,25.7
2018-05-21T13:20:17.845Z,26.78
2018-05-21T13:21:27.342Z,26.78
2018-05-21T13:22:37.376Z,26.19
2018-05-21T13:23:47.408Z,27.16
2018-05-21T13:24:57.171Z,25.21
2018-05-21T13:26:06.933Z,26.67
2018-05-21T13:27:16.688Z,25.69
2018-05-21T13:28:26.721Z,25.3
2018-05-21T13:29:36.483Z,26.18
2018-05-21T13:30:46.244Z,25.02
2018-05-21T13:31:56.008Z,25.7
2018-05-21T13:33:06.070Z,26.19
2018-05-21T13:34:15.835Z,25.41
2018-05-21T13:35:25.867Z,26.39
2018-05-21T13:36:35.436Z,26.58
2018-05-21T13:37:45.197Z,25.63
2018-05-21T13:38:54.965Z,26.12
2018-05-21T13:40:04.456Z,25.04
2018-05-21T13:41:14.230Z,23.68
2018-05-21T13:42:24.257Z,24.27
2018-05-21T13:43:34.288Z,24.66
2018-05-21T13:44:43.866Z,23.97
2018-05-21T13:45:53.893Z,23.88
2018-05-21T13:47:03.929Z,23.86
2018-05-21T13:48:13.963Z,24.84
2018-05-21T13:49:23.992Z,23.97
2018-05-21T13:50:34.025Z,23.3
2018-05-21T13:51:43.792Z,23.29
2018-05-21T13:52:53.821Z,23.97
2018-05-21T13:54:03.583Z,23.97
2018-05-21T13:55:13.640Z,23.68
2018-05-21T13:56:23.666Z,24.57
2018-05-21T13:57:33.694Z,23.58
2018-05-21T13:58:43.721Z,23.67
2018-05-21T13:59:53.578Z,23.66
2018-05-21T14:01:03.606Z,23.95
2018-05-21T14:02:13.377Z,23.56
2018-05-21T14:03:23.134Z,23.75
2018-05-21T14:04:32.899Z,23.85
2018-05-21T14:05:42.707Z,23.46
2018-05-21T14:06:52.993Z,23.38
2018-05-21T14:08:02.764Z,23.28
2018-05-21T14:09:12.523Z,23.78
2018-05-21T14:10:22.282Z,23.39
2018-05-21T14:11:32.317Z,23.79
2018-05-21T14:12:42.565Z,23.4
2018-05-21T14:13:52.321Z,23.19
2018-05-21T14:15:02.346Z,22.22
2018-05-21T14:16:12.143Z,22.21
2018-05-21T14:17:22.161Z,23.67
2018-05-21T14:18:32.024Z,21.04
2018-05-21T14:19:41.521Z,21.62
2018-05-21T14:20:51.547Z,21.71
2018-05-21T14:22:01.310Z,21.89
2018-05-21T14:23:10.560Z,22.08
2018-05-21T14:24:20.392Z,23.63
2018-05-21T14:25:29.722Z,24.9
2018-05-21T14:26:39.511Z,25.29
2018-05-21T14:27:49.542Z,25.48
2018-05-21T14:28:59.029Z,24.13
2018-05-21T14:30:08.415Z,25.3
2018-05-21T14:31:18.439Z,23.45
2018-05-21T14:32:28.469Z,24.13
2018-05-21T14:33:38.226Z,23.73
2018-05-21T14:34:47.989Z,25.29
2018-05-21T14:35:57.483Z,24.62
2018-05-21T14:37:07.517Z,22.28
2018-05-21T14:38:17.011Z,22.48
2018-05-21T14:39:26.506Z,22.47
2018-05-21T14:40:36.273Z,23.35
2018-05-21T14:41:46.305Z,22.77
2018-05-21T14:42:56.066Z,21.81
2018-05-21T14:44:06.088Z,22.21
2018-05-21T14:45:15.586Z,22.5
2018-05-21T14:46:25.344Z,23.18
2018-05-21T14:47:34.838Z,22.41
2018-05-21T14:48:44.858Z,22.31
2018-05-21T14:49:54.620Z,21.72
2018-05-21T14:51:04.387Z,22.02
2018-05-21T14:52:13.608Z,22.41
2018-05-21T14:53:23.643Z,22.99
2018-05-21T14:54:33.674Z,23.27
2018-05-21T14:55:43.709Z,22.39
2018-05-21T14:56:53.468Z,22.59
2018-05-21T14:58:03.490Z,22.97
2018-05-21T14:59:13.532Z,23.93
2018-05-21T15:00:23.022Z,23.25
2018-05-21T15:01:33.046Z,23.62
2018-05-21T15:02:42.809Z,23.82
2018-05-21T15:03:52.625Z,24.87
2018-05-21T15:05:02.779Z,25.45